createdAt,value
2019-01-23T00:01:00.106Z,98732.33
2019-01-23T00:03:29.263Z,98732.64
2019-01-23T00:05:58.605Z,98719.88
2019-01-23T00:08:27.951Z,98719.56
2019-01-23T00:10:57.014Z,98713.66
2019-01-23T00:13:26.229Z,98713.01
2019-01-23T00:15:55.449Z,98704.14
2019-01-23T00:18:24.810Z,98709.22
2019-01-23T00:20:53.837Z,98700.19
2019-01-23T00:23:23.431Z,98693.11
2019-01-23T00:25:52.515Z,98695.23
2019-01-23T00:28:21.618Z,98694.58
2019-01-23T00:30:50.878Z,98687.84
2019-01-23T00:33:20.000Z,98684.06
2019-01-23T00:35:49.267Z,98681.42
2019-01-23T00:38:19.809Z,98680.77
2019-01-23T00:40:49.026Z,98675.52
2019-01-23T00:43:18.145Z,98677.81
2019-01-23T00:45:47.173Z,98674.05
2019-01-23T00:48:16.420Z,98669.10
2019-01-23T00:50:45.468Z,98670.10
2019-01-23T00:53:14.768Z,98664.16
2019-01-23T00:55:43.934Z,98658.41
2019-01-23T00:58:13.181Z,98657.59
2019-01-23T01:00:42.440Z,98656.61
2019-01-23T01:03:11.828Z,98656.11
2019-01-23T01:05:40.926Z,98653.14
2019-01-23T01:08:10.221Z,98652.16
2019-01-23T01:10:39.435Z,98646.73
2019-01-23T01:13:08.502Z,98646.56
2019-01-23T01:15:37.885Z,98649.53
2019-01-23T01:18:06.950Z,98645.89
2019-01-23T01:20:36.162Z,98642.77
2019-01-23T01:23:05.325Z,98630.92
2019-01-23T01:25:34.639Z,98622.69
2019-01-23T01:28:03.927Z,98625.19
2019-01-23T01:30:33.242Z,98618.28
2019-01-23T01:33:02.515Z,98621.09
2019-01-23T01:35:31.666Z,98624.37
2019-01-23T01:38:00.933Z,98614.33
2019-01-23T01:40:30.207Z,98619.77
2019-01-23T01:42:59.242Z,98614.83
2019-01-23T01:45:28.790Z,98612.20
2019-01-23T01:47:57.886Z,98601.50
2019-01-23T01:50:26.923Z,98602.98
2019-01-23T01:52:56.162Z,98608.09
2019-01-23T01:55:25.410Z,98602.66
2019-01-23T01:57:57.283Z,98596.88
2019-01-23T02:00:26.640Z,98591.48
2019-01-23T02:02:55.828Z,98587.38
2019-01-23T02:05:25.073Z,98577.53
2019-01-23T02:07:54.157Z,98579.16
2019-01-23T02:10:23.538Z,98577.38
2019-01-23T02:12:52.788Z,98572.95
2019-01-23T02:15:22.044Z,98565.39
2019-01-23T02:17:51.261Z,98560.80
2019-01-23T02:20:22.754Z,98561.27
2019-01-23T02:22:51.857Z,98558.31
2019-01-23T02:25:21.050Z,98562.27
2019-01-23T02:27:50.241Z,98559.31
2019-01-23T02:30:21.331Z,98557.00
2019-01-23T02:32:50.387Z,98556.00
2019-01-23T02:35:19.617Z,98558.30
2019-01-23T02:37:48.984Z,98549.78
2019-01-23T02:40:20.138Z,98544.66
2019-01-23T02:42:49.369Z,98540.91
2019-01-23T02:45:18.868Z,98537.94
2019-01-23T02:47:47.945Z,98534.64
2019-01-23T02:50:17.181Z,98530.06
2019-01-23T02:52:46.224Z,98517.90
2019-01-23T02:55:15.482Z,98522.66
2019-01-23T02:57:44.649Z,98518.88
2019-01-23T03:00:16.344Z,98513.48
2019-01-23T03:02:46.109Z,98505.09
2019-01-23T03:05:17.127Z,98501.17
2019-01-23T03:07:46.469Z,98499.70
2019-01-23T03:10:17.513Z,98497.58
2019-01-23T03:12:46.932Z,98494.77
2019-01-23T03:15:16.597Z,98491.80
2019-01-23T03:17:45.736Z,98481.30
2019-01-23T03:20:16.580Z,98487.05
2019-01-23T03:22:45.627Z,98478.84
2019-01-23T03:25:15.347Z,98473.27
2019-01-23T03:27:45.010Z,98474.58
2019-01-23T03:30:16.759Z,98470.31
2019-01-23T03:32:45.894Z,98470.17
2019-01-23T03:35:16.920Z,98469.66
2019-01-23T03:37:45.991Z,98465.90
2019-01-23T03:40:17.414Z,98465.89
2019-01-23T03:42:46.529Z,98458.66
2019-01-23T03:45:16.299Z,98455.73
2019-01-23T03:47:45.628Z,98458.34
2019-01-23T03:50:16.678Z,98453.43
2019-01-23T03:52:46.050Z,98454.23
2019-01-23T03:55:15.720Z,98447.50
2019-01-23T03:57:44.839Z,98441.94
2019-01-23T04:00:21.591Z,98443.89
2019-01-23T04:02:51.807Z,98439.80
2019-01-23T04:05:20.966Z,98436.01
2019-01-23T04:07:50.143Z,98437.16
2019-01-23T04:10:19.374Z,98430.77
2019-01-23T04:12:48.492Z,98427.31
2019-01-23T04:15:17.779Z,98432.40
2019-01-23T04:17:47.241Z,98425.67
2019-01-23T04:20:21.326Z,98423.69
2019-01-23T04:22:50.641Z,98425.17
2019-01-23T04:25:19.884Z,98426.80
2019-01-23T04:27:48.966Z,98421.23
2019-01-23T04:30:23.007Z,98420.91
2019-01-23T04:32:52.311Z,98423.34
2019-01-23T04:35:21.393Z,98415.48
2019-01-23T04:37:50.514Z,98411.52
2019-01-23T04:40:19.782Z,98405.47
2019-01-23T04:42:49.144Z,98404.16
2019-01-23T04:45:18.287Z,98401.85
2019-01-23T04:47:47.814Z,98402.50
2019-01-23T04:50:17.687Z,98395.77
2019-01-23T04:53:12.143Z,98398.08
2019-01-23T04:55:41.629Z,98389.19
2019-01-23T04:58:11.070Z,98389.54
2019-01-23T05:00:40.192Z,98390.36
2019-01-23T05:03:09.257Z,98377.75
2019-01-23T05:05:38.378Z,98387.77
2019-01-23T05:08:07.617Z,98379.88
2019-01-23T05:10:36.726Z,98374.31
2019-01-23T05:13:06.226Z,98374.95
2019-01-23T05:15:35.297Z,98372.30
2019-01-23T05:18:04.343Z,98373.61
2019-01-23T05:20:33.694Z,98369.84
2019-01-23T05:23:02.891Z,98369.52
2019-01-23T05:25:32.037Z,98361.97
2019-01-23T05:28:01.259Z,98359.54
2019-01-23T05:30:30.479Z,98357.20
2019-01-23T05:32:59.730Z,98356.22
2019-01-23T05:35:28.977Z,98350.97
2019-01-23T05:37:58.137Z,98353.91
2019-01-23T05:40:27.577Z,98347.68
2019-01-23T05:42:56.622Z,98343.10
2019-01-23T05:45:25.877Z,98350.45
2019-01-23T05:47:54.913Z,98346.36
2019-01-23T05:50:24.248Z,98341.44
2019-01-23T05:52:54.753Z,98341.63
2019-01-23T05:55:23.875Z,98348.03
2019-01-23T05:57:53.070Z,98347.36
2019-01-23T06:00:23.277Z,98347.03
2019-01-23T06:02:52.397Z,98348.51
2019-01-23T06:05:21.667Z,98352.28
2019-01-23T06:07:50.790Z,98343.42
2019-01-23T06:10:20.076Z,98341.12
2019-01-23T06:12:49.527Z,98342.43
2019-01-23T06:15:18.591Z,98346.72
2019-01-23T06:17:47.697Z,98335.88
2019-01-23T06:20:19.156Z,98339.48
2019-01-23T06:22:48.325Z,98340.32
2019-01-23T06:25:17.504Z,98345.41
2019-01-23T06:27:46.815Z,98344.73
2019-01-23T06:30:24.222Z,98339.48
2019-01-23T06:32:53.521Z,98343.42
2019-01-23T06:35:23.173Z,98345.05
2019-01-23T06:37:52.250Z,98346.87
2019-01-23T06:40:21.367Z,98341.47
2019-01-23T06:42:50.697Z,98336.70
2019-01-23T06:45:19.954Z,98343.42
2019-01-23T06:47:50.329Z,98345.41
2019-01-23T06:50:21.651Z,98345.73
2019-01-23T06:52:50.827Z,98340.19
2019-01-23T06:55:20.113Z,98336.89
2019-01-23T06:57:49.389Z,98331.48
2019-01-23T07:00:25.898Z,98332.63
2019-01-23T07:02:55.425Z,98334.94
2019-01-23T07:05:24.931Z,98334.78
2019-01-23T07:07:54.002Z,98331.97
2019-01-23T07:10:24.954Z,98332.50
2019-01-23T07:12:54.018Z,98336.42
2019-01-23T07:15:23.150Z,98326.38
2019-01-23T07:17:52.385Z,98328.03
2019-01-23T07:20:28.004Z,98338.53
2019-01-23T07:22:57.135Z,98331.33
2019-01-23T07:25:27.591Z,98324.61
2019-01-23T07:27:56.651Z,98329.04
2019-01-23T07:30:28.842Z,98329.38
2019-01-23T07:32:57.923Z,98332.81
2019-01-23T07:35:27.086Z,98331.68
2019-01-23T07:37:56.137Z,98329.06
2019-01-23T07:40:25.271Z,98339.70
2019-01-23T07:42:54.452Z,98327.91
2019-01-23T07:45:23.714Z,98328.38
2019-01-23T07:47:52.897Z,98319.36
2019-01-23T07:50:22.131Z,98321.31
2019-01-23T07:52:51.275Z,98317.37
2019-01-23T07:55:20.532Z,98321.11
2019-01-23T07:57:49.619Z,98324.55
2019-01-23T08:00:20.252Z,98316.70
2019-01-23T08:02:49.519Z,98321.00
2019-01-23T08:05:23.233Z,98319.00
2019-01-23T08:07:53.456Z,98321.45
2019-01-23T08:10:23.599Z,98319.91
2019-01-23T08:12:52.817Z,98313.42
2019-01-23T08:15:27.300Z,98307.00
2019-01-23T08:17:56.386Z,98308.98
2019-01-23T08:20:25.899Z,98313.84
2019-01-23T08:22:55.071Z,98319.22
2019-01-23T08:25:24.417Z,98315.41
2019-01-23T08:27:53.521Z,98317.94
2019-01-23T08:30:23.254Z,98314.56
2019-01-23T08:32:52.915Z,98322.37
2019-01-23T08:35:22.882Z,98317.28
2019-01-23T08:37:51.989Z,98315.28
2019-01-23T08:40:21.207Z,98306.12
2019-01-23T08:42:50.613Z,98311.48
2019-01-23T08:45:19.799Z,98306.70
2019-01-23T08:47:50.846Z,98308.98
2019-01-23T08:50:26.740Z,98308.87
2019-01-23T08:52:56.113Z,98310.73
2019-01-23T08:55:25.209Z,98307.95
2019-01-23T08:57:54.755Z,98313.08
2019-01-23T09:00:23.950Z,98306.30
2019-01-23T09:02:53.383Z,98306.09
2019-01-23T09:05:22.561Z,98314.05
2019-01-23T09:07:51.656Z,98309.70
2019-01-23T09:10:21.989Z,98315.67
2019-01-23T09:12:51.062Z,98308.09
2019-01-23T09:15:20.166Z,98311.07
2019-01-23T09:17:49.215Z,98317.96
2019-01-23T09:20:18.815Z,98313.19
2019-01-23T09:22:47.883Z,98315.98
2019-01-23T09:25:18.909Z,98316.64
2019-01-23T09:27:47.967Z,98315.02
2019-01-23T09:30:23.058Z,98313.70
2019-01-23T09:33:35.759Z,98316.22
2019-01-23T09:36:40.556Z,98320.28
2019-01-23T09:39:41.226Z,98317.68
2019-01-23T09:42:28.325Z,98326.08
2019-01-23T09:45:24.607Z,98313.08
2019-01-23T09:48:06.574Z,98313.81
2019-01-23T09:50:57.819Z,98311.98
2019-01-23T09:53:37.769Z,98313.08
2019-01-23T09:56:07.055Z,98316.91
2019-01-23T09:58:36.155Z,98322.22
2019-01-23T10:01:06.642Z,98317.54
2019-01-23T10:03:35.978Z,98320.88
2019-01-23T10:06:05.127Z,98316.87
2019-01-23T10:08:34.281Z,98321.17
2019-01-23T10:11:03.420Z,98317.71
2019-01-23T10:13:32.589Z,98314.25
2019-01-23T10:16:09.545Z,98310.82
2019-01-23T10:18:38.786Z,98309.99
2019-01-23T10:21:07.971Z,98313.54
2019-01-23T10:23:37.234Z,98310.39
2019-01-23T10:26:06.330Z,98307.80
2019-01-23T10:28:35.694Z,98306.05
2019-01-23T10:31:06.847Z,98301.87
2019-01-23T10:33:35.982Z,98298.23
2019-01-23T10:36:05.814Z,98299.95
2019-01-23T10:38:35.175Z,98300.63
2019-01-23T10:41:04.358Z,98297.97
2019-01-23T10:43:33.486Z,98289.90
2019-01-23T10:46:02.572Z,98295.36
2019-01-23T10:48:37.807Z,98281.05
2019-01-23T10:51:02.599Z,98291.63
2019-01-23T10:53:31.745Z,98289.91
2019-01-23T10:56:01.409Z,98289.48
2019-01-23T10:58:30.789Z,98289.13
2019-01-23T11:00:59.986Z,98290.08
2019-01-23T11:03:29.103Z,98282.84
2019-01-23T11:05:58.215Z,98293.91
2019-01-23T11:08:27.334Z,98284.02
2019-01-23T11:10:56.478Z,98286.08
2019-01-23T11:13:25.691Z,98279.89
2019-01-23T11:15:54.827Z,98282.16
2019-01-23T11:18:23.979Z,98280.49
2019-01-23T11:20:54.104Z,98286.00
2019-01-23T11:23:23.671Z,98286.95
2019-01-23T11:25:52.812Z,98285.34
2019-01-23T11:28:21.924Z,98281.58
2019-01-23T11:30:51.114Z,98282.30
2019-01-23T11:33:20.243Z,98272.70
2019-01-23T11:35:49.791Z,98276.34
2019-01-23T11:38:18.887Z,98283.49
2019-01-23T11:40:48.003Z,98277.32
2019-01-23T11:43:17.220Z,98272.59
2019-01-23T11:45:46.470Z,98281.45
2019-01-23T11:48:15.705Z,98271.13
2019-01-23T11:50:45.008Z,98274.88
2019-01-23T11:53:14.360Z,98275.41
2019-01-23T11:55:43.648Z,98266.77
2019-01-23T11:58:12.788Z,98268.09
2019-01-23T12:00:41.843Z,98259.62
2019-01-23T12:03:11.018Z,98269.92
2019-01-23T12:05:40.088Z,98271.95
2019-01-23T12:08:09.432Z,98267.93
2019-01-23T12:10:38.874Z,98267.38
2019-01-23T12:13:07.966Z,98267.99
2019-01-23T12:15:40.990Z,98264.41
2019-01-23T12:18:08.323Z,98272.86
2019-01-23T12:20:37.604Z,98269.80
2019-01-23T12:23:07.005Z,98278.36
2019-01-23T12:25:36.208Z,98270.32
2019-01-23T12:28:05.421Z,98266.70
2019-01-23T12:30:35.624Z,98269.58
2019-01-23T12:33:05.642Z,98266.40
2019-01-23T12:35:34.912Z,98267.86
2019-01-23T12:38:04.217Z,98275.81
2019-01-23T12:40:33.505Z,98274.77
2019-01-23T12:43:02.663Z,98277.56
2019-01-23T12:45:31.820Z,98269.73
2019-01-23T12:48:01.366Z,98272.56
2019-01-23T12:50:31.940Z,98267.53
2019-01-23T12:53:01.314Z,98264.39
2019-01-23T12:55:30.410Z,98270.64
2019-01-23T12:57:59.819Z,98276.36
2019-01-23T13:00:31.740Z,98273.56
2019-01-23T13:03:01.563Z,98279.67
2019-01-23T13:05:30.640Z,98277.47
2019-01-23T13:07:59.745Z,98274.31
2019-01-23T13:10:29.116Z,98277.31
2019-01-23T13:12:58.391Z,98276.30
2019-01-23T13:15:27.840Z,98275.35
2019-01-23T13:17:57.387Z,98277.93
2019-01-23T13:20:26.827Z,98276.40
2019-01-23T13:22:56.122Z,98282.83
2019-01-23T13:25:29.126Z,98282.89
2019-01-23T13:28:00.962Z,98287.09
2019-01-23T13:30:30.152Z,98289.55
2019-01-23T13:32:59.992Z,98300.27
2019-01-23T13:35:35.302Z,98300.36
2019-01-23T13:38:05.787Z,98301.50
2019-01-23T13:40:37.451Z,98297.98
2019-01-23T13:43:07.698Z,98299.05
2019-01-23T13:45:37.037Z,98301.80
2019-01-23T13:48:08.598Z,98297.41
2019-01-23T13:50:37.689Z,98296.33
2019-01-23T13:53:07.018Z,98297.50
2019-01-23T13:55:36.297Z,98307.47
2019-01-23T13:58:05.806Z,98307.95
2019-01-23T14:00:38.102Z,98309.03
2019-01-23T14:03:07.829Z,98309.92
2019-01-23T14:05:36.956Z,98310.59
2019-01-23T14:08:07.248Z,98316.59
2019-01-23T14:10:36.416Z,98320.61
2019-01-23T14:13:06.657Z,98327.20
2019-01-23T14:15:37.179Z,98329.84
2019-01-23T14:18:07.276Z,98330.56
2019-01-23T14:20:36.473Z,98333.98
2019-01-23T14:23:06.043Z,98336.46
2019-01-23T14:25:35.300Z,98334.17
2019-01-23T14:28:04.781Z,98340.70
2019-01-23T14:30:42.092Z,98343.47
2019-01-23T14:33:11.428Z,98344.55
2019-01-23T14:35:43.089Z,98345.69
2019-01-23T14:38:12.381Z,98346.81
2019-01-23T14:40:41.775Z,98348.74
2019-01-23T14:43:10.920Z,98351.48
2019-01-23T14:45:40.207Z,98355.98
2019-01-23T14:48:09.539Z,98361.92
2019-01-23T14:50:38.627Z,98361.31
2019-01-23T14:53:08.217Z,98368.20
2019-01-23T14:55:37.312Z,98371.20
2019-01-23T14:58:06.687Z,98372.34
2019-01-23T15:00:35.768Z,98378.98
2019-01-23T15:03:05.269Z,98377.66
2019-01-23T15:05:34.386Z,98382.59
2019-01-23T15:08:03.691Z,98383.56
2019-01-23T15:10:33.210Z,98385.22
2019-01-23T15:13:02.847Z,98395.05
2019-01-23T15:15:32.075Z,98385.83
2019-01-23T15:18:01.381Z,98395.09
2019-01-23T15:20:38.862Z,98391.27
2019-01-23T15:23:08.283Z,98399.83
2019-01-23T15:25:37.414Z,98397.02
2019-01-23T15:28:06.763Z,98401.81
2019-01-23T15:30:35.823Z,98403.06
2019-01-23T15:33:05.455Z,98397.95
2019-01-23T15:35:34.645Z,98401.00
2019-01-23T15:38:03.870Z,98406.60
2019-01-23T15:40:35.584Z,98410.07
2019-01-23T15:43:04.889Z,98410.41
2019-01-23T15:45:34.122Z,98421.20
2019-01-23T15:48:03.502Z,98415.71
2019-01-23T15:50:32.718Z,98416.67
2019-01-23T15:53:01.837Z,98418.56
2019-01-23T15:55:31.009Z,98419.40
2019-01-23T15:58:00.383Z,98426.03
2019-01-23T16:00:31.562Z,98431.14
2019-01-23T16:03:00.737Z,98430.16
2019-01-23T16:05:29.872Z,98434.78
2019-01-23T16:07:59.001Z,98431.92
2019-01-23T16:10:29.498Z,98440.27
2019-01-23T16:12:58.575Z,98440.45
2019-01-23T16:15:29.196Z,98446.28
2019-01-23T16:17:58.461Z,98448.52
2019-01-23T16:20:27.711Z,98448.17
2019-01-23T16:22:56.906Z,98453.56
2019-01-23T16:25:27.665Z,98447.64
2019-01-23T16:27:56.833Z,98468.07
2019-01-23T16:30:35.051Z,98462.50
2019-01-23T16:33:05.427Z,98467.50
2019-01-23T16:35:38.872Z,98469.08
2019-01-23T16:38:07.520Z,98469.27
2019-01-23T16:40:36.916Z,98477.73
2019-01-23T16:43:06.699Z,98478.31
2019-01-23T16:45:35.846Z,98479.74
2019-01-23T16:48:05.503Z,98480.88
2019-01-23T16:50:34.780Z,98485.53
2019-01-23T16:53:04.285Z,98484.66
2019-01-23T16:55:34.837Z,98493.25
2019-01-23T16:58:09.819Z,98494.05
2019-01-23T17:00:39.990Z,98501.34
2019-01-23T17:03:09.863Z,98504.55
2019-01-23T17:05:39.435Z,98509.06
2019-01-23T17:08:09.753Z,98509.86
2019-01-23T17:10:39.324Z,98516.55
2019-01-23T17:13:08.814Z,98515.37
2019-01-23T17:15:38.479Z,98519.19
2019-01-23T17:18:08.432Z,98521.85
2019-01-23T17:20:42.940Z,98529.10
2019-01-23T17:23:12.022Z,98530.77
2019-01-23T17:25:43.249Z,98535.30
2019-01-23T17:28:14.045Z,98537.63
2019-01-23T17:30:43.763Z,98538.84
2019-01-23T17:33:13.103Z,98547.19
2019-01-23T17:35:43.233Z,98542.62
2019-01-23T17:38:12.617Z,98544.45
2019-01-23T17:40:41.685Z,98548.66
2019-01-23T17:43:11.939Z,98547.57
2019-01-23T17:45:41.484Z,98556.83
2019-01-23T17:48:12.789Z,98555.76
2019-01-23T17:50:42.024Z,98558.69
2019-01-23T17:53:11.190Z,98565.41
2019-01-23T17:55:42.023Z,98568.36
2019-01-23T17:58:14.948Z,98574.83
2019-01-23T18:00:57.528Z,98569.05
2019-01-23T18:03:26.880Z,98575.31
2019-01-23T18:05:55.997Z,98575.95
2019-01-23T18:08:25.212Z,98581.22
2019-01-23T18:10:54.380Z,98586.52
2019-01-23T18:13:23.499Z,98588.28
2019-01-23T18:15:53.653Z,98588.95
2019-01-23T18:18:23.093Z,98587.70
2019-01-23T18:20:52.242Z,98591.46
2019-01-23T18:23:21.390Z,98591.46
2019-01-23T18:25:50.798Z,98592.72
2019-01-23T18:28:19.943Z,98594.27
2019-01-23T18:30:59.788Z,98601.63
2019-01-23T18:33:37.965Z,98604.44
2019-01-23T18:36:42.786Z,98604.60
2019-01-23T18:39:29.885Z,98601.99
2019-01-23T18:42:30.526Z,98610.21
2019-01-23T18:45:23.783Z,98608.27
2019-01-23T18:48:34.112Z,98612.20
2019-01-23T18:51:09.187Z,98612.06
2019-01-23T18:53:38.468Z,98621.72
2019-01-23T18:56:07.742Z,98621.27
2019-01-23T18:58:37.115Z,98622.92
2019-01-23T19:01:06.476Z,98621.90
2019-01-23T19:03:36.114Z,98623.09
2019-01-23T19:06:05.682Z,98627.31
2019-01-23T19:08:34.834Z,98628.92
2019-01-23T19:11:04.419Z,98638.77
2019-01-23T19:13:33.597Z,98641.84
2019-01-23T19:16:03.415Z,98647.34
2019-01-23T19:18:32.694Z,98653.30
2019-01-23T19:21:02.420Z,98652.65
2019-01-23T19:23:32.122Z,98652.97
2019-01-23T19:26:01.312Z,98657.58
2019-01-23T19:28:30.448Z,98654.76
2019-01-23T19:30:59.932Z,98662.53
2019-01-23T19:33:29.291Z,98660.63
2019-01-23T19:35:59.954Z,98655.67
2019-01-23T19:38:29.767Z,98670.32
2019-01-23T19:40:58.910Z,98664.89
2019-01-23T19:43:28.242Z,98662.89
2019-01-23T19:45:57.895Z,98664.53
2019-01-23T19:48:27.230Z,98672.44
2019-01-23T19:50:56.389Z,98666.69
2019-01-23T19:53:25.856Z,98672.13
2019-01-23T19:55:54.963Z,98670.95
2019-01-23T19:58:24.226Z,98671.45
2019-01-23T20:00:53.432Z,98678.34
2019-01-23T20:03:22.570Z,98679.14
2019-01-23T20:05:52.481Z,98682.29
2019-01-23T20:08:21.880Z,98681.00
2019-01-23T20:10:51.463Z,98685.47
2019-01-23T20:13:20.599Z,98683.66
2019-01-23T20:15:49.993Z,98677.74
2019-01-23T20:18:19.369Z,98684.34
2019-01-23T20:20:48.580Z,98685.31
2019-01-23T20:23:17.792Z,98694.20
2019-01-23T20:25:47.023Z,98698.33
2019-01-23T20:28:17.103Z,98704.58
2019-01-23T20:30:46.802Z,98701.95
2019-01-23T20:33:16.313Z,98701.95
2019-01-23T20:35:45.448Z,98709.16
2019-01-23T20:38:14.497Z,98719.55
2019-01-23T20:40:44.156Z,98721.05
2019-01-23T20:43:13.432Z,98725.47
2019-01-23T20:45:42.655Z,98720.20
2019-01-23T20:48:12.459Z,98727.79
2019-01-23T20:50:42.094Z,98725.33
2019-01-23T20:53:11.340Z,98728.42
2019-01-23T20:55:40.920Z,98730.23
2019-01-23T20:58:10.412Z,98729.76
2019-01-23T21:00:40.356Z,98727.61
2019-01-23T21:03:09.714Z,98733.66
2019-01-23T21:05:38.886Z,98742.23
2019-01-23T21:08:08.266Z,98745.20
2019-01-23T21:10:37.444Z,98742.73
2019-01-23T21:13:06.628Z,98752.13
2019-01-23T21:15:35.946Z,98752.45
2019-01-23T21:18:06.959Z,98753.71
2019-01-23T21:20:38.462Z,98755.06
2019-01-23T21:23:09.175Z,98751.41
2019-01-23T21:25:38.596Z,98758.02
2019-01-23T21:28:09.128Z,98757.36
2019-01-23T21:30:38.347Z,98772.69
2019-01-23T21:33:08.164Z,98764.62
2019-01-23T21:35:37.353Z,98765.94
2019-01-23T21:38:06.491Z,98770.85
2019-01-23T21:40:35.812Z,98773.52
2019-01-23T21:43:05.344Z,98765.77
2019-01-23T21:45:36.527Z,98774.66
2019-01-23T21:48:06.548Z,98776.47
2019-01-23T21:50:35.901Z,98779.77
2019-01-23T21:53:05.963Z,98776.98
2019-01-23T21:55:35.263Z,98781.75
2019-01-23T21:58:05.078Z,98783.23
2019-01-23T22:00:37.294Z,98789.81
2019-01-23T22:03:08.372Z,98794.59
2019-01-23T22:05:37.816Z,98791.94
2019-01-23T22:08:06.956Z,98795.24
2019-01-23T22:10:38.394Z,98797.55
2019-01-23T22:13:07.776Z,98800.51
2019-01-23T22:15:37.233Z,98804.80
2019-01-23T22:18:07.797Z,98817.31
2019-01-23T22:20:36.894Z,98820.59
2019-01-23T22:23:08.193Z,98817.13
2019-01-23T22:25:37.322Z,98820.08
2019-01-23T22:28:06.626Z,98817.30
2019-01-23T22:30:36.768Z,98831.14
2019-01-23T22:33:06.925Z,98820.09
2019-01-23T22:35:36.378Z,98825.52
2019-01-23T22:38:05.957Z,98818.28
2019-01-23T22:40:35.129Z,98825.20
2019-01-23T22:43:04.261Z,98827.52
2019-01-23T22:45:33.587Z,98826.52
2019-01-23T22:48:03.206Z,98829.47
2019-01-23T22:50:32.841Z,98837.87
2019-01-23T22:53:01.927Z,98842.98
2019-01-23T22:55:31.158Z,98840.34
2019-01-23T22:58:00.550Z,98846.09
2019-01-23T23:00:45.749Z,98848.23
2019-01-23T23:03:17.558Z,98846.45
2019-01-23T23:05:46.805Z,98848.58
2019-01-23T23:08:16.117Z,98858.94
2019-01-23T23:10:45.280Z,98864.20
2019-01-23T23:13:14.547Z,98863.03
2019-01-23T23:15:43.894Z,98874.53
2019-01-23T23:18:13.452Z,98870.74
2019-01-23T23:20:42.696Z,98882.43
2019-01-23T23:23:12.873Z,98885.54
2019-01-23T23:25:42.182Z,98889.77
2019-01-23T23:28:11.331Z,98887.29
2019-01-23T23:30:40.699Z,98895.17
2019-01-23T23:33:09.987Z,98895.49
2019-01-23T23:35:39.193Z,98904.34
2019-01-23T23:38:08.334Z,98912.27
2019-01-23T23:40:37.488Z,98915.22
2019-01-23T23:43:06.735Z,98914.18
2019-01-23T23:45:35.928Z,98917.25
2019-01-23T23:48:05.477Z,98923.27
2019-01-23T23:50:34.609Z,98929.80
2019-01-23T23:53:03.782Z,98912.55
2019-01-23T23:55:32.953Z,98932.16
2019-01-23T23:58:02.171Z,98933.42
